createdAt,value
2022-08-05T00:02:24.675Z,7.65
2022-08-05T00:04:55.604Z,7.45
2022-08-05T00:07:59.762Z,6.90
2022-08-05T00:10:12.633Z,7.78
2022-08-05T00:12:55.932Z,7.95
2022-08-05T00:15:55.374Z,9.00
2022-08-05T00:18:21.655Z,8.90
2022-08-05T00:20:50.832Z,8.10
2022-08-05T00:23:44.548Z,10.15
2022-08-05T00:26:07.870Z,7.55
2022-08-05T00:28:36.740Z,8.75
2022-08-05T00:31:05.021Z,11.30
2022-08-05T00:34:53.818Z,10.77
2022-08-05T00:37:10.726Z,7.43
2022-08-05T00:39:14.275Z,7.10
2022-08-05T00:41:55.345Z,12.07
2022-08-05T00:44:30.802Z,9.60
2022-08-05T00:47:04.271Z,6.75
2022-08-05T00:49:44.446Z,8.30
2022-08-05T00:52:28.110Z,10.50
2022-08-05T00:54:56.859Z,8.98
2022-08-05T00:57:38.105Z,9.23
2022-08-05T01:00:11.205Z,8.23
2022-08-05T01:02:41.355Z,8.55
2022-08-05T01:05:12.877Z,8.23
2022-08-05T01:08:29.909Z,9.93
2022-08-05T01:10:36.555Z,8.80
2022-08-05T01:13:13.133Z,11.85
2022-08-05T01:15:54.721Z,12.95
2022-08-05T01:18:27.517Z,8.57
2022-08-05T01:23:42.630Z,9.63
2022-08-05T01:26:30.991Z,14.15
2022-08-05T01:29:05.306Z,12.38
2022-08-05T01:31:44.682Z,8.68
2022-08-05T01:34:17.952Z,8.75
2022-08-05T01:39:46.487Z,10.73
2022-08-05T01:42:09.771Z,9.48
2022-08-05T01:44:40.858Z,7.95
2022-08-05T01:47:11.316Z,9.05
2022-08-05T01:50:00.235Z,8.33
2022-08-05T01:52:31.310Z,10.10
2022-08-05T01:55:04.364Z,9.68
2022-08-05T01:58:18.775Z,8.00
2022-08-05T02:00:30.253Z,8.27
2022-08-05T02:03:03.660Z,8.63
2022-08-05T02:05:35.982Z,11.98
2022-08-05T02:10:38.635Z,11.05
2022-08-05T02:13:16.076Z,9.73
2022-08-05T02:15:51.115Z,10.70
2022-08-05T02:18:35.142Z,11.30
2022-08-05T02:21:14.747Z,12.32
2022-08-05T02:23:48.600Z,10.27
2022-08-05T02:26:21.916Z,10.85
2022-08-05T02:28:51.202Z,9.20
2022-08-05T02:31:24.878Z,10.02
2022-08-05T02:33:58.085Z,12.77
2022-08-05T02:36:31.442Z,9.75
2022-08-05T02:39:02.941Z,10.63
2022-08-05T02:41:43.245Z,9.65
2022-08-05T02:44:22.879Z,9.55
2022-08-05T02:46:59.999Z,11.63
2022-08-05T02:49:36.411Z,11.52
2022-08-05T02:52:08.785Z,13.02
2022-08-05T02:54:41.668Z,11.07
2022-08-05T02:58:19.641Z,9.93
2022-08-05T03:00:01.509Z,10.02
2022-08-05T03:02:35.640Z,10.68
2022-08-05T03:05:04.831Z,10.40
2022-08-05T03:08:00.372Z,10.90
2022-08-05T03:10:25.175Z,8.55
2022-08-05T03:12:54.284Z,10.30
2022-08-05T03:15:24.347Z,9.93
2022-08-05T03:17:55.634Z,12.15
2022-08-05T03:20:24.726Z,10.77
2022-08-05T03:22:57.282Z,12.23
2022-08-05T03:25:32.588Z,11.07
2022-08-05T03:28:18.773Z,8.20
2022-08-05T03:30:49.497Z,10.52
2022-08-05T03:33:20.442Z,10.57
2022-08-05T03:35:50.365Z,11.23
2022-08-05T03:38:32.586Z,13.20
2022-08-05T03:41:08.396Z,13.27
2022-08-05T03:44:09.364Z,12.63
2022-08-05T03:46:29.687Z,12.70
2022-08-05T03:49:02.117Z,8.85
2022-08-05T03:52:36.629Z,11.32
2022-08-05T03:55:53.870Z,11.43
2022-08-05T03:57:41.341Z,10.25
2022-08-05T04:00:12.642Z,11.25
2022-08-05T04:02:57.914Z,10.70
2022-08-05T04:05:34.456Z,13.57
2022-08-05T04:08:29.921Z,9.60
2022-08-05T04:10:57.427Z,9.20
2022-08-05T04:13:26.123Z,12.55
2022-08-05T04:16:14.942Z,12.38
2022-08-05T04:18:42.996Z,12.50
2022-08-05T04:22:09.623Z,12.27
2022-08-05T04:24:09.100Z,9.60
2022-08-05T04:26:47.007Z,10.70
2022-08-05T04:29:15.021Z,14.02
2022-08-05T04:31:43.123Z,10.32
2022-08-05T04:34:31.205Z,11.93
2022-08-05T04:37:00.992Z,11.80
2022-08-05T04:39:32.126Z,13.90
2022-08-05T04:42:00.546Z,11.35
2022-08-05T04:44:31.635Z,11.95
2022-08-05T04:46:59.789Z,11.10
2022-08-05T04:49:38.348Z,11.52
2022-08-05T04:52:08.980Z,10.82
2022-08-05T04:54:37.015Z,10.30
2022-08-05T04:57:05.416Z,9.52
2022-08-05T04:59:39.131Z,12.05
2022-08-05T05:02:37.629Z,11.07
2022-08-05T05:05:02.728Z,8.88
2022-08-05T05:07:35.642Z,9.70
2022-08-05T05:10:06.519Z,10.82
2022-08-05T05:12:36.698Z,12.27
2022-08-05T05:15:10.938Z,10.93
2022-08-05T05:17:56.335Z,10.65
2022-08-05T05:20:28.537Z,8.25
2022-08-05T05:22:58.981Z,8.60
2022-08-05T05:25:32.598Z,11.23
2022-08-05T05:28:08.774Z,15.50
2022-08-05T05:30:38.090Z,11.93
2022-08-05T05:33:14.015Z,10.35
2022-08-05T05:35:45.555Z,10.38
2022-08-05T05:38:35.024Z,13.25
2022-08-05T05:41:03.137Z,9.55
2022-08-05T05:43:58.619Z,10.23
2022-08-05T05:46:19.156Z,10.05
2022-08-05T05:48:49.956Z,9.27
2022-08-05T05:51:23.337Z,9.25
2022-08-05T05:53:58.743Z,9.65
2022-08-05T05:56:34.379Z,8.73
2022-08-05T05:59:05.257Z,10.88
2022-08-05T06:01:37.551Z,11.45
2022-08-05T06:04:11.709Z,7.82
2022-08-05T06:06:42.666Z,12.30
2022-08-05T06:09:17.693Z,8.50
2022-08-05T06:12:02.117Z,11.07
2022-08-05T06:14:31.537Z,10.35
2022-08-05T06:17:02.029Z,6.65
2022-08-05T06:19:57.114Z,8.82
2022-08-05T06:22:29.303Z,10.85
2022-08-05T06:24:58.948Z,8.80
2022-08-05T06:28:09.008Z,9.90
2022-08-05T06:30:20.087Z,10.13
2022-08-05T06:32:50.745Z,9.93
2022-08-05T06:36:04.234Z,8.55
2022-08-05T06:38:11.228Z,7.13
2022-08-05T06:40:42.059Z,10.55
2022-08-05T06:43:57.221Z,8.40
2022-08-05T06:46:03.789Z,10.18
2022-08-05T06:48:52.683Z,6.53
2022-08-05T06:51:30.263Z,9.20
2022-08-05T06:53:59.984Z,10.23
2022-08-05T06:56:30.126Z,9.10
2022-08-05T06:59:01.667Z,9.18
2022-08-05T07:01:32.239Z,8.05
2022-08-05T07:04:03.187Z,8.85
2022-08-05T07:06:32.008Z,6.97
2022-08-05T07:09:04.082Z,7.50
2022-08-05T07:11:36.757Z,10.52
2022-08-05T07:14:29.395Z,6.13
2022-08-05T07:18:08.591Z,7.13
2022-08-05T07:22:38.861Z,8.52
2022-08-05T07:25:22.718Z,7.05
2022-08-05T07:28:04.244Z,6.85
2022-08-05T07:30:38.806Z,7.30
2022-08-05T07:33:10.685Z,8.23
2022-08-05T07:36:03.257Z,9.07
2022-08-05T07:38:42.819Z,11.10
2022-08-05T07:42:08.331Z,9.32
2022-08-05T07:44:04.182Z,7.85
2022-08-05T07:46:33.821Z,6.93
2022-08-05T07:49:06.245Z,6.50
2022-08-05T07:51:40.950Z,5.97
2022-08-05T07:54:23.352Z,9.82
2022-08-05T07:57:13.932Z,6.10
2022-08-05T07:59:46.916Z,6.82
2022-08-05T08:02:17.843Z,7.95
2022-08-05T08:04:48.730Z,7.32
2022-08-05T08:07:22.925Z,5.80
2022-08-05T08:09:54.848Z,4.90
2022-08-05T08:12:35.103Z,4.07
2022-08-05T08:15:15.132Z,5.03
2022-08-05T08:17:50.565Z,8.23
2022-08-05T08:20:45.358Z,6.45
2022-08-05T08:24:00.094Z,7.15
2022-08-05T08:26:00.673Z,9.10
2022-08-05T08:28:35.591Z,5.85
2022-08-05T08:31:07.440Z,3.92
2022-08-05T08:33:37.564Z,5.88
2022-08-05T08:38:56.943Z,5.40
2022-08-05T08:41:52.361Z,6.40
2022-08-05T08:45:18.248Z,7.47
2022-08-05T08:47:47.453Z,1.92
2022-08-05T08:50:23.438Z,3.38
2022-08-05T08:52:51.830Z,3.60
2022-08-05T08:56:02.191Z,3.08
2022-08-05T08:58:12.987Z,2.75
2022-08-05T09:00:42.343Z,5.18
2022-08-05T09:03:15.915Z,4.00
2022-08-05T09:06:07.734Z,2.78
2022-08-05T09:08:40.316Z,3.25
2022-08-05T09:11:12.091Z,5.43
2022-08-05T09:14:00.871Z,3.88
2022-08-05T09:16:31.585Z,2.60
2022-08-05T09:19:01.100Z,3.58
2022-08-05T09:22:22.474Z,3.47
2022-08-05T09:24:24.304Z,6.05
2022-08-05T09:26:56.242Z,5.22
2022-08-05T09:29:47.830Z,4.07
2022-08-05T09:32:45.996Z,3.00
2022-08-05T09:35:26.571Z,3.20
2022-08-05T09:38:12.434Z,2.28
2022-08-05T09:40:52.386Z,5.15
2022-08-05T09:43:40.977Z,2.28
2022-08-05T09:46:27.383Z,3.25
2022-08-05T09:49:07.990Z,2.83
2022-08-05T09:51:48.824Z,3.22
2022-08-05T09:54:21.350Z,2.72
2022-08-05T09:57:01.232Z,2.50
2022-08-05T09:59:35.118Z,2.88
2022-08-05T10:02:06.549Z,2.97
2022-08-05T10:04:41.028Z,2.00
2022-08-05T10:07:19.975Z,1.83
2022-08-05T10:10:14.282Z,2.30
2022-08-05T10:12:49.317Z,4.00
2022-08-05T10:15:21.033Z,1.90
2022-08-05T10:18:08.750Z,2.35
2022-08-05T10:20:39.486Z,3.00
2022-08-05T10:23:22.196Z,2.50
2022-08-05T10:26:02.250Z,1.65
2022-08-05T10:28:32.003Z,4.00
2022-08-05T10:32:54.989Z,1.42
2022-08-05T10:33:54.693Z,1.17
2022-08-05T10:36:25.979Z,2.47
2022-08-05T10:39:05.314Z,2.58
2022-08-05T10:41:45.235Z,2.58
2022-08-05T10:44:20.022Z,2.78
2022-08-05T10:46:57.266Z,3.55
2022-08-05T10:49:33.364Z,3.22
2022-08-05T10:52:05.015Z,2.25
2022-08-05T10:54:55.873Z,2.73
2022-08-05T10:57:30.936Z,2.80
2022-08-05T11:00:19.845Z,0.80
2022-08-05T11:03:26.006Z,4.35
2022-08-05T11:06:06.339Z,3.70
2022-08-05T11:08:39.231Z,4.15
2022-08-05T11:11:52.229Z,1.70
2022-08-05T11:14:57.458Z,4.20
2022-08-05T11:17:58.883Z,3.88
2022-08-05T11:20:44.537Z,1.33
2022-08-05T11:24:04.924Z,4.53
2022-08-05T11:26:35.281Z,3.50
2022-08-05T11:29:13.947Z,2.10
2022-08-05T11:31:57.937Z,3.40
2022-08-05T11:34:51.574Z,4.65
2022-08-05T11:38:29.003Z,1.77
2022-08-05T11:41:35.334Z,2.03
2022-08-05T11:44:05.516Z,1.10
2022-08-05T11:47:09.615Z,2.10
2022-08-05T11:49:27.755Z,2.20
2022-08-05T11:51:57.692Z,6.65
2022-08-05T11:54:33.896Z,5.72
2022-08-05T11:57:07.943Z,2.70
2022-08-05T11:59:49.705Z,2.20
2022-08-05T12:02:31.317Z,3.33
2022-08-05T12:05:07.236Z,2.63
2022-08-05T12:08:09.060Z,1.98
2022-08-05T12:10:42.883Z,3.75
2022-08-05T12:13:15.602Z,1.92
2022-08-05T12:15:49.622Z,3.05
2022-08-05T12:18:32.865Z,3.47
2022-08-05T12:21:11.270Z,2.30
2022-08-05T12:23:43.176Z,4.45
2022-08-05T12:26:11.547Z,6.10
2022-08-05T12:28:39.797Z,4.05
2022-08-05T12:31:08.298Z,3.28
2022-08-05T12:33:38.823Z,5.82
2022-08-05T12:36:09.348Z,2.88
2022-08-05T12:38:39.863Z,3.70
2022-08-05T12:41:13.213Z,2.90
2022-08-05T12:43:56.195Z,2.70
2022-08-05T12:46:29.487Z,2.67
2022-08-05T12:49:13.672Z,2.60
2022-08-05T12:52:10.415Z,2.83
2022-08-05T12:54:34.974Z,2.58
2022-08-05T12:57:09.178Z,2.63
2022-08-05T13:00:09.058Z,3.95
2022-08-05T13:02:37.400Z,3.15
2022-08-05T13:05:12.736Z,1.88
2022-08-05T13:08:00.395Z,3.45
2022-08-05T13:10:33.114Z,2.78
2022-08-05T13:13:03.088Z,1.77
2022-08-05T13:15:41.414Z,1.35
2022-08-05T13:18:20.142Z,2.78
2022-08-05T13:20:50.423Z,2.63
2022-08-05T13:23:22.691Z,1.88
2022-08-05T13:28:28.013Z,3.72
2022-08-05T13:30:57.205Z,2.38
2022-08-05T13:34:22.941Z,2.30
2022-08-05T13:36:15.132Z,2.97
2022-08-05T13:38:44.370Z,6.18
2022-08-05T13:41:20.113Z,1.23
2022-08-05T13:43:54.847Z,2.15
2022-08-05T13:46:44.055Z,3.95
2022-08-05T13:49:13.660Z,1.05
2022-08-05T13:51:45.864Z,3.40
2022-08-05T13:54:16.155Z,2.85
2022-08-05T13:56:51.567Z,2.22
2022-08-05T13:59:24.022Z,3.55
2022-08-05T14:01:58.383Z,1.77
2022-08-05T14:04:49.145Z,3.80
2022-08-05T14:07:26.175Z,1.95
2022-08-05T14:10:12.384Z,2.92
2022-08-05T14:12:42.743Z,3.03
2022-08-05T14:16:05.295Z,2.35
2022-08-05T14:18:00.983Z,3.20
2022-08-05T14:20:30.598Z,0.77
2022-08-05T14:23:00.376Z,3.13
2022-08-05T14:25:30.140Z,2.28
2022-08-05T14:27:58.898Z,0.98
2022-08-05T14:30:28.241Z,2.25
2022-08-05T14:32:57.355Z,1.27
2022-08-05T14:35:36.882Z,2.00
2022-08-05T14:38:32.561Z,0.90
2022-08-05T14:41:06.782Z,2.40
2022-08-05T14:44:01.810Z,3.22
2022-08-05T14:46:28.819Z,3.60
2022-08-05T14:49:03.468Z,3.78
2022-08-05T14:51:36.262Z,2.88
2022-08-05T14:54:28.785Z,2.63
2022-08-05T14:56:56.378Z,4.82
2022-08-05T14:59:24.848Z,2.53
2022-08-05T15:01:53.845Z,1.83
2022-08-05T15:04:23.229Z,3.85
2022-08-05T15:06:55.586Z,3.97
2022-08-05T15:09:51.770Z,2.03
2022-08-05T15:12:16.311Z,3.15
2022-08-05T15:14:50.017Z,1.70
2022-08-05T15:17:45.634Z,3.53
2022-08-05T15:20:18.801Z,1.70
2022-08-05T15:22:54.550Z,3.67
2022-08-05T15:25:41.413Z,2.70
2022-08-05T15:28:16.172Z,3.92
2022-08-05T15:30:45.726Z,4.13
2022-08-05T15:33:56.488Z,1.98
2022-08-05T15:36:04.078Z,2.25
2022-08-05T15:38:36.488Z,2.08
2022-08-05T15:41:22.229Z,1.23
2022-08-05T15:43:55.053Z,2.75
2022-08-05T15:46:25.099Z,5.07
2022-08-05T15:49:01.177Z,4.30
2022-08-05T15:52:10.052Z,2.47
2022-08-05T15:54:34.532Z,3.60
2022-08-05T15:57:07.721Z,1.25
2022-08-05T15:59:36.397Z,2.20
2022-08-05T16:02:09.477Z,1.92
2022-08-05T16:04:42.551Z,1.77
2022-08-05T16:07:11.030Z,2.30
2022-08-05T16:09:41.543Z,2.65
2022-08-05T16:12:12.207Z,3.08
2022-08-05T16:14:40.497Z,3.35
2022-08-05T16:17:09.394Z,1.98
2022-08-05T16:20:04.337Z,4.07
2022-08-05T16:22:27.775Z,1.75
2022-08-05T16:25:08.120Z,3.25
2022-08-05T16:28:00.670Z,1.63
2022-08-05T16:30:29.130Z,4.32
2022-08-05T16:32:57.743Z,4.07
2022-08-05T16:35:28.514Z,2.88
2022-08-05T16:38:15.171Z,2.55
2022-08-05T16:40:55.076Z,4.65
2022-08-05T16:43:31.476Z,3.88
2022-08-05T16:46:03.930Z,3.15
2022-08-05T16:48:41.167Z,5.07
2022-08-05T16:51:11.018Z,4.13
2022-08-05T16:54:03.885Z,4.72
2022-08-05T16:56:30.601Z,5.97
2022-08-05T16:59:08.209Z,2.72
2022-08-05T17:01:53.937Z,4.15
2022-08-05T17:04:26.314Z,2.80
2022-08-05T17:06:55.615Z,3.50
2022-08-05T17:09:25.159Z,3.00
2022-08-05T17:11:59.783Z,3.03
2022-08-05T17:14:36.876Z,1.80
2022-08-05T17:17:14.379Z,5.13
2022-08-05T17:19:46.096Z,2.65
2022-08-05T17:22:24.713Z,4.00
2022-08-05T17:24:58.160Z,2.42
2022-08-05T17:30:11.891Z,4.00
2022-08-05T17:32:46.901Z,3.22
2022-08-05T17:35:21.028Z,2.00
2022-08-05T17:37:49.505Z,1.65
2022-08-05T17:40:22.468Z,3.15
2022-08-05T17:42:52.962Z,3.53
2022-08-05T17:45:25.127Z,3.20
2022-08-05T17:47:57.735Z,2.70
2022-08-05T17:50:28.104Z,3.35
2022-08-05T17:52:59.475Z,2.80
2022-08-05T17:55:37.169Z,1.83
2022-08-05T17:58:12.546Z,2.15
2022-08-05T18:00:45.203Z,4.90
2022-08-05T18:03:39.173Z,3.10
2022-08-05T18:06:11.223Z,2.58
2022-08-05T18:08:40.622Z,3.67
2022-08-05T18:11:24.793Z,3.28
2022-08-05T18:14:04.265Z,4.60
2022-08-05T18:16:34.695Z,3.97
2022-08-05T18:19:04.093Z,2.25
2022-08-05T18:22:08.397Z,3.20
2022-08-05T18:24:20.974Z,3.17
2022-08-05T18:26:49.283Z,1.38
2022-08-05T18:29:17.346Z,5.15
2022-08-05T18:32:02.999Z,3.47
2022-08-05T18:34:41.014Z,4.80
2022-08-05T18:37:12.031Z,6.60
2022-08-05T18:40:30.993Z,4.22
2022-08-05T18:42:29.667Z,4.32
2022-08-05T18:44:57.885Z,3.85
2022-08-05T18:47:29.659Z,4.65
2022-08-05T18:50:19.238Z,4.38
2022-08-05T18:52:50.877Z,3.47
2022-08-05T18:55:22.282Z,3.60
2022-08-05T18:57:53.227Z,4.22
2022-08-05T19:00:27.079Z,3.70
2022-08-05T19:03:03.750Z,3.88
2022-08-05T19:06:12.872Z,2.65
2022-08-05T19:08:30.620Z,3.15
2022-08-05T19:11:04.892Z,5.78
2022-08-05T19:13:36.932Z,3.75
2022-08-05T19:16:25.057Z,4.30
2022-08-05T19:18:57.453Z,4.55
2022-08-05T19:21:29.568Z,2.90
2022-08-05T19:24:08.937Z,3.17
2022-08-05T19:26:54.702Z,3.25
2022-08-05T19:29:35.510Z,4.15
2022-08-05T19:32:05.573Z,3.60
2022-08-05T19:34:38.461Z,5.18
2022-08-05T19:37:06.710Z,5.30
2022-08-05T19:39:46.000Z,4.40
2022-08-05T19:42:35.736Z,5.15
2022-08-05T19:45:05.902Z,6.43
2022-08-05T19:47:37.599Z,8.85
2022-08-05T19:50:10.571Z,8.35
2022-08-05T19:52:41.156Z,4.90
2022-08-05T19:56:14.915Z,6.90
2022-08-05T19:58:04.067Z,6.45
2022-08-05T20:00:42.751Z,4.40
2022-08-05T20:03:11.105Z,5.78
2022-08-05T20:05:50.198Z,4.55
2022-08-05T20:08:19.857Z,3.97
2022-08-05T20:10:49.547Z,4.75
2022-08-05T20:13:18.465Z,4.38
2022-08-05T20:16:06.816Z,6.75
2022-08-05T20:18:36.162Z,6.22
2022-08-05T20:21:07.204Z,4.45
2022-08-05T20:23:40.738Z,3.20
2022-08-05T20:26:19.756Z,5.28
2022-08-05T20:28:50.612Z,5.20
2022-08-05T20:31:21.665Z,4.03
2022-08-05T20:33:51.874Z,3.58
2022-08-05T20:36:24.074Z,5.43
2022-08-05T20:38:54.022Z,4.57
2022-08-05T20:41:44.420Z,4.80
2022-08-05T20:44:17.641Z,4.80
2022-08-05T20:46:48.306Z,6.55
2022-08-05T20:49:18.439Z,4.03
2022-08-05T20:51:54.576Z,3.67
2022-08-05T20:54:22.856Z,5.13
2022-08-05T20:56:53.094Z,8.88
2022-08-05T20:59:27.131Z,5.68
2022-08-05T21:02:09.656Z,4.10
2022-08-05T21:04:39.079Z,8.05
2022-08-05T21:07:09.150Z,6.82
2022-08-05T21:09:37.254Z,6.20
2022-08-05T21:12:19.815Z,6.05
2022-08-05T21:14:48.026Z,8.98
2022-08-05T21:17:16.461Z,7.32
2022-08-05T21:19:48.066Z,6.85
2022-08-05T21:22:21.894Z,5.45
2022-08-05T21:24:52.512Z,5.38
2022-08-05T21:27:24.656Z,4.47
2022-08-05T21:29:55.520Z,3.58
2022-08-05T21:32:26.805Z,5.32
2022-08-05T21:34:56.045Z,4.65
2022-08-05T21:37:52.683Z,10.52
2022-08-05T21:40:21.953Z,7.93
2022-08-05T21:42:52.079Z,6.93
2022-08-05T21:45:24.439Z,4.70
2022-08-05T21:47:57.780Z,6.28
2022-08-05T21:50:27.282Z,8.43
2022-08-05T21:52:59.040Z,6.72
2022-08-05T21:56:00.793Z,8.13
2022-08-05T21:58:30.660Z,5.38
2022-08-05T22:01:00.890Z,5.43
2022-08-05T22:03:52.560Z,5.65
2022-08-05T22:06:22.578Z,7.45
2022-08-05T22:08:53.515Z,5.93
2022-08-05T22:11:34.966Z,10.32
2022-08-05T22:14:32.517Z,4.80
2022-08-05T22:16:56.970Z,9.38
2022-08-05T22:20:01.964Z,8.70
2022-08-05T22:22:16.044Z,5.30
2022-08-05T22:25:03.258Z,5.03
2022-08-05T22:28:08.858Z,7.65
2022-08-05T22:30:35.130Z,5.22
2022-08-05T22:33:04.181Z,5.00
2022-08-05T22:35:48.961Z,9.05
2022-08-05T22:38:18.995Z,4.93
2022-08-05T22:40:55.010Z,4.70
2022-08-05T22:43:36.689Z,9.30
2022-08-05T22:46:13.255Z,7.22
2022-08-05T22:48:51.803Z,4.15
2022-08-05T22:51:23.239Z,7.90
2022-08-05T22:54:08.011Z,5.00
2022-08-05T22:56:39.838Z,5.47
2022-08-05T22:59:45.082Z,9.23
2022-08-05T23:02:05.998Z,4.97
2022-08-05T23:04:36.447Z,5.43
2022-08-05T23:07:06.920Z,5.18
2022-08-05T23:09:58.281Z,8.35
2022-08-05T23:12:24.973Z,5.63
2022-08-05T23:14:54.496Z,5.32
2022-08-05T23:17:34.637Z,7.45
2022-08-05T23:20:16.384Z,4.75
2022-08-05T23:22:47.623Z,4.45
2022-08-05T23:25:52.523Z,7.38
2022-08-05T23:28:07.968Z,12.48
2022-08-05T23:30:39.711Z,6.25
2022-08-05T23:33:16.198Z,8.32
2022-08-05T23:35:51.147Z,7.68
2022-08-05T23:38:19.575Z,6.93
2022-08-05T23:40:50.175Z,3.17
2022-08-05T23:43:25.554Z,7.90
2022-08-05T23:46:21.196Z,9.68
2022-08-05T23:48:59.300Z,17.05
2022-08-05T23:51:54.825Z,8.18
2022-08-05T23:54:26.121Z,6.40
2022-08-05T23:57:03.417Z,7.88
